Time;durP1;ratioP1;P1;durP2;ratioP2;P2;SDS_P1;SDS_P2;PMS_P1;PMS_P2;Temp;Humidity;BMP_temperature;BMP_pressure;BME280_temperature;BME280_humidity;BME280_pressure;Samples;Min_cycle;Max_cycle;Signal;HPM_P1;HPM_P2
2024/02/21 00:01:53;;;;;;;24.60;17.90;;;;;;;2.10;90.34;99640.81;106892;1263;71804;-39
2024/02/21 00:04:21;;;;;;;26.10;18.60;;;;;;;2.13;90.05;99641.96;107006;1263;67588;-39
2024/02/21 00:06:49;;;;;;;29.90;19.90;;;;;;;2.10;90.00;99637.01;106946;1264;72942;-39
2024/02/21 00:09:16;;;;;;;28.30;18.90;;;;;;;2.08;90.23;99638.55;106921;1263;59525;-39
2024/02/21 00:11:44;;;;;;;24.60;18.30;;;;;;;2.09;90.31;99636.48;106918;1264;60151;-39
2024/02/21 00:14:11;;;;;;;24.70;18.20;;;;;;;2.14;89.97;99634.73;106917;1263;73106;-39
2024/02/21 00:16:39;;;;;;;27.90;18.20;;;;;;;2.19;89.97;99632.92;106960;1266;67562;-39
2024/02/21 00:19:06;;;;;;;29.60;19.00;;;;;;;2.18;89.94;99626.30;106909;1264;72754;-39
2024/02/21 00:21:34;;;;;;;29.50;19.70;;;;;;;2.16;90.13;99623.41;106969;1264;59730;-39
2024/02/21 00:24:01;;;;;;;26.50;18.90;;;;;;;2.14;90.10;99623.83;107016;1264;59394;-39
2024/02/21 00:26:29;;;;;;;26.60;19.40;;;;;;;2.15;90.15;99621.08;106902;1267;72110;-39
2024/02/21 00:28:57;;;;;;;28.10;19.00;;;;;;;2.16;89.84;99624.42;106869;1267;66617;-39
2024/02/21 00:31:24;;;;;;;28.80;19.20;;;;;;;2.16;89.81;99623.68;106871;1263;72690;-39
2024/02/21 00:33:52;;;;;;;27.30;18.00;;;;;;;2.18;89.93;99623.53;106873;1263;59622;-39
2024/02/21 00:36:19;;;;;;;26.10;18.20;;;;;;;2.22;89.86;99620.65;106931;1264;60183;-39
2024/02/21 00:38:47;;;;;;;26.30;19.10;;;;;;;2.21;89.80;99618.03;106880;1265;73145;-39
2024/02/21 00:41:14;;;;;;;29.30;20.00;;;;;;;2.19;90.02;99617.95;106976;1266;67027;-39
2024/02/21 00:43:42;;;;;;;26.70;19.80;;;;;;;2.16;90.30;99614.37;106987;1264;72673;-39
2024/02/21 00:46:10;;;;;;;29.10;19.80;;;;;;;2.15;90.55;99616.27;107208;1257;60915;-39
2024/02/21 00:48:37;;;;;;;27.60;19.80;;;;;;;2.16;90.84;99609.73;107215;1258;59665;-39
2024/02/21 00:51:05;;;;;;;27.00;18.90;;;;;;;2.17;90.47;99608.05;107204;1258;72262;-39
2024/02/21 00:53:32;;;;;;;29.30;19.40;;;;;;;2.21;90.61;99608.73;107218;1263;66730;-38
2024/02/21 00:56:00;;;;;;;29.20;19.60;;;;;;;2.20;90.93;99607.14;107146;1261;72689;-39
2024/02/21 00:58:27;;;;;;;29.10;18.60;;;;;;;2.22;91.00;99606.15;107259;1257;60913;-39
2024/02/21 01:00:55;;;;;;;28.00;19.30;;;;;;;2.24;91.35;99606.02;107282;1258;59237;-39
2024/02/21 01:03:23;;;;;;;30.90;21.50;;;;;;;2.23;91.57;99604.52;107285;1257;73047;-39
2024/02/21 01:05:50;;;;;;;32.60;20.60;;;;;;;2.21;91.73;99600.05;107254;1258;66374;-39
2024/02/21 01:08:18;;;;;;;29.30;19.50;;;;;;;2.21;92.00;99599.84;107241;1261;72676;-39
2024/02/21 01:10:45;;;;;;;28.90;19.30;;;;;;;2.23;91.79;99597.21;107222;1257;60993;-39
2024/02/21 01:13:13;;;;;;;28.60;19.70;;;;;;;2.27;91.97;99590.35;105720;1257;1003651;-39
2024/02/21 01:15:40;;;;;;;24.20;18.10;;;;;;;2.32;91.95;99594.59;107259;1257;73072;-39
2024/02/21 01:18:08;;;;;;;28.50;18.60;;;;;;;2.32;92.31;99594.48;107290;1257;67869;-39
2024/02/21 01:20:35;;;;;;;27.40;19.60;;;;;;;2.31;92.38;99591.02;107039;1258;72770;-38
2024/02/21 01:23:03;;;;;;;27.80;18.40;;;;;;;2.34;92.52;99586.41;107202;1257;60342;-38
2024/02/21 01:25:31;;;;;;;27.10;19.50;;;;;;;2.38;92.31;99589.77;107207;1258;59340;-38
2024/02/21 01:27:58;;;;;;;24.80;17.70;;;;;;;2.41;92.18;99590.11;107264;1260;73072;-38
2024/02/21 01:30:26;;;;;;;26.50;19.30;;;;;;;2.41;92.26;99587.06;107253;1258;67885;-38
2024/02/21 01:32:53;;;;;;;27.00;19.10;;;;;;;2.39;92.44;99587.44;107184;1258;72679;-38
2024/02/21 01:35:21;;;;;;;26.10;19.80;;;;;;;2.38;92.58;99585.94;107235;1257;61221;-38
2024/02/21 01:37:48;;;;;;;27.20;18.40;;;;;;;2.43;92.56;99582.32;107221;1257;59980;-39
2024/02/21 01:40:17;;;;;;;23.60;17.90;;;;;;;2.48;92.46;99582.45;107121;1257;73059;-38
2024/02/21 01:42:44;;;;;;;28.00;18.30;;;;;;;2.52;92.57;99581.52;107264;1260;67544;-38
2024/02/21 01:45:12;;;;;;;26.90;18.20;;;;;;;2.52;92.66;99584.66;107255;1260;71787;-38
2024/02/21 01:47:42;;;;;;;28.50;19.50;;;;;;;2.50;92.71;99582.39;107242;1257;60924;-38
2024/02/21 01:50:10;;;;;;;25.80;17.80;;;;;;;2.50;92.60;99585.33;107230;1257;60022;-38
2024/02/21 01:52:38;;;;;;;25.80;17.50;;;;;;;2.52;92.41;99588.05;107023;1257;71771;-38
2024/02/21 01:55:06;;;;;;;27.50;18.20;;;;;;;2.53;92.38;99585.47;107147;1258;66319;-38
2024/02/21 01:57:33;;;;;;;24.90;18.30;;;;;;;2.56;92.39;99588.92;107247;1260;72657;-38
2024/02/21 02:00:01;;;;;;;26.80;18.20;;;;;;;2.54;92.48;99583.41;107242;1258;60496;-38
2024/02/21 02:02:37;;;;;;;26.80;18.30;;;;;;;2.54;92.62;99584.12;107255;1257;60357;-38
2024/02/21 02:05:06;;;;;;;25.80;18.10;;;;;;;2.55;92.60;99584.04;107169;1257;73806;-38
2024/02/21 02:07:34;;;;;;;24.70;17.20;;;;;;;2.56;92.44;99583.14;107297;1257;66453;-38
2024/02/21 02:10:01;;;;;;;24.30;17.30;;;;;;;2.60;92.37;99580.66;107229;1257;71404;-38
2024/02/21 02:12:29;;;;;;;23.70;16.90;;;;;;;2.61;92.20;99583.09;107032;1257;60361;-38
2024/02/21 02:15:01;;;;;;;27.10;17.50;;;;;;;2.58;92.35;99580.31;107256;1257;60568;-39
2024/02/21 02:17:28;;;;;;;25.30;17.20;;;;;;;2.54;92.52;99577.46;107143;1257;73927;-39
2024/02/21 02:19:56;;;;;;;22.80;16.90;;;;;;;2.55;92.52;99577.56;107192;1257;67586;-39
2024/02/21 02:22:28;;;;;;;23.10;16.70;;;;;;;2.59;92.24;99580.23;107210;1257;72117;-39
2024/02/21 02:24:55;;;;;;;24.80;17.00;;;;;;;2.63;92.34;99581.50;107240;1257;60511;-39
2024/02/21 02:27:24;;;;;;;25.10;17.90;;;;;;;2.63;92.42;99580.15;107251;1257;60313;-39
2024/02/21 02:29:52;;;;;;;26.10;18.10;;;;;;;2.62;92.42;99582.27;107247;1258;73821;-39
2024/02/21 02:32:20;;;;;;;24.60;18.00;;;;;;;2.61;92.40;99591.13;107296;1255;67907;-39
2024/02/21 02:34:47;;;;;;;23.80;17.00;;;;;;;2.64;92.11;99593.16;107254;1260;72667;-39
2024/02/21 02:37:15;;;;;;;24.40;17.30;;;;;;;2.66;91.88;99590.07;107274;1257;60858;-39
2024/02/21 02:39:42;;;;;;;23.60;16.00;;;;;;;2.68;91.76;99595.21;107297;1257;60420;-39
2024/02/21 02:42:10;;;;;;;26.90;18.50;;;;;;;2.65;91.99;99600.36;107202;1257;73848;-39
2024/02/21 02:44:38;;;;;;;26.60;17.60;;;;;;;2.61;92.15;99602.26;107252;1257;66301;-40
2024/02/21 02:47:05;;;;;;;25.80;17.40;;;;;;;2.62;92.27;99604.58;107202;1256;72695;-39
2024/02/21 02:49:32;;;;;;;23.20;17.50;;;;;;;2.67;92.14;99605.50;107193;1258;60419;-39
2024/02/21 02:52:00;;;;;;;24.40;16.30;;;;;;;2.70;91.92;99607.41;107207;1257;60429;-39
2024/02/21 02:54:28;;;;;;;24.80;16.60;;;;;;;2.72;92.00;99607.27;107264;1260;73924;-39
2024/02/21 02:56:55;;;;;;;24.00;17.50;;;;;;;2.69;92.10;99607.88;107252;1260;67582;-39
2024/02/21 02:59:23;;;;;;;24.40;18.10;;;;;;;2.66;92.32;99606.56;107159;1257;71425;-38
2024/02/21 03:01:50;;;;;;;22.40;16.60;;;;;;;2.66;92.20;99610.09;107179;1257;60440;-39
2024/02/21 03:04:18;;;;;;;23.70;16.40;;;;;;;2.68;92.11;99611.52;107203;1257;60402;-39
2024/02/21 03:06:46;;;;;;;22.40;16.80;;;;;;;2.71;92.22;99611.98;107282;1257;73829;-39
2024/02/21 03:09:15;;;;;;;25.10;17.20;;;;;;;2.72;92.60;99607.59;107269;1257;66300;-40
2024/02/21 03:11:44;;;;;;;23.50;16.20;;;;;;;2.73;92.86;99607.73;107254;1257;72664;-39
2024/02/21 03:14:12;;;;;;;21.60;16.00;;;;;;;2.73;92.74;99609.59;107161;1259;60450;-39
2024/02/21 03:16:39;;;;;;;24.90;16.30;;;;;;;2.77;92.61;99614.34;107163;1257;60382;-39
2024/02/21 03:19:07;;;;;;;21.20;14.70;;;;;;;2.81;92.52;99616.98;107269;1257;73824;-39
2024/02/21 03:21:35;;;;;;;22.10;16.60;;;;;;;2.85;92.49;99616.41;107289;1257;67607;-39
2024/02/21 03:24:03;;;;;;;20.30;15.60;;;;;;;2.89;92.36;99619.91;107086;1258;72672;-39
2024/02/21 03:26:30;;;;;;;23.00;16.50;;;;;;;2.89;92.53;99618.45;107198;1259;60358;-39
2024/02/21 03:28:58;;;;;;;21.70;15.80;;;;;;;2.86;92.49;99622.27;107185;1257;60255;-39
2024/02/21 03:31:25;;;;;;;22.30;16.70;;;;;;;2.83;92.48;99617.30;107249;1260;73857;-40
2024/02/21 03:33:58;;;;;;;25.70;16.40;;;;;;;2.84;92.29;99619.20;107207;1257;66616;-38
2024/02/21 03:36:26;;;;;;;20.80;15.50;;;;;;;2.88;92.38;99619.61;107150;1260;71697;-38
2024/02/21 03:38:54;;;;;;;20.80;14.90;;;;;;;2.93;92.19;99623.17;107152;1260;60440;-38
2024/02/21 03:41:21;;;;;;;21.80;15.90;;;;;;;2.95;92.03;99624.59;107262;1259;60520;-39
2024/02/21 03:43:50;;;;;;;24.80;16.00;;;;;;;2.93;92.24;99624.16;107318;1257;73860;-39
2024/02/21 03:46:17;;;;;;;23.80;16.10;;;;;;;2.92;92.29;99624.00;107275;1260;66264;-39
2024/02/21 03:48:45;;;;;;;23.30;15.70;;;;;;;2.98;92.12;99623.98;107219;1257;72693;-39
2024/02/21 03:51:15;;;;;;;21.40;15.00;;;;;;;3.03;92.09;99619.20;107226;1257;60310;-39
2024/02/21 03:53:42;;;;;;;18.00;12.50;;;;;;;3.09;91.77;99622.72;107275;1257;60387;-39
2024/02/21 03:56:10;;;;;;;18.40;14.50;;;;;;;3.13;91.43;99624.23;107232;1257;73789;-39
2024/02/21 03:58:37;;;;;;;20.00;14.70;;;;;;;3.11;91.37;99623.96;107228;1257;68091;-39
2024/02/21 04:01:05;;;;;;;21.90;16.40;;;;;;;3.08;91.42;99623.65;107213;1257;71444;-39
2024/02/21 04:03:32;;;;;;;23.60;15.40;;;;;;;3.05;91.39;99621.45;107139;1257;60905;-39
2024/02/21 04:06:00;;;;;;;20.00;14.80;;;;;;;3.06;91.09;99623.85;107189;1258;60370;-39
2024/02/21 04:08:28;;;;;;;19.70;14.10;;;;;;;3.10;90.84;99621.38;107151;1262;73885;-39
2024/02/21 04:10:55;;;;;;;19.50;14.70;;;;;;;3.13;90.97;99622.09;107227;1262;67594;-39
2024/02/21 04:13:23;;;;;;;19.00;14.70;;;;;;;3.12;91.16;99625.00;107200;1257;71455;-39
2024/02/21 04:15:52;;;;;;;23.10;15.20;;;;;;;3.07;91.12;99624.48;107136;1257;60467;-39
2024/02/21 04:18:19;;;;;;;21.50;15.20;;;;;;;3.04;91.21;99630.65;107205;1261;60382;-39
2024/02/21 04:20:47;;;;;;;18.20;13.80;;;;;;;3.06;91.06;99632.67;107170;1257;72550;-39
2024/02/21 04:23:14;;;;;;;21.20;14.80;;;;;;;3.11;90.78;99631.83;107193;1257;66288;-39
2024/02/21 04:25:42;;;;;;;21.10;14.60;;;;;;;3.12;90.87;99637.54;107219;1257;72725;-39
2024/02/21 04:28:10;;;;;;;22.80;15.00;;;;;;;3.10;91.02;99638.73;107269;1257;60568;-39
2024/02/21 04:30:37;;;;;;;23.30;15.70;;;;;;;3.06;91.28;99638.15;107194;1256;60591;-39
2024/02/21 04:33:05;;;;;;;20.50;14.50;;;;;;;3.06;91.12;99638.48;107165;1257;72867;-39
2024/02/21 04:35:33;;;;;;;19.70;14.40;;;;;;;3.07;91.05;99641.36;107223;1257;66436;-39
2024/02/21 04:38:00;;;;;;;19.70;15.00;;;;;;;3.04;91.04;99640.86;107204;1257;72721;-39
2024/02/21 04:40:28;;;;;;;21.40;14.70;;;;;;;3.02;91.05;99643.96;107215;1257;60447;-39
2024/02/21 04:42:57;;;;;;;18.40;13.90;;;;;;;3.00;91.24;99643.16;107193;1258;61009;-39
2024/02/21 04:45:24;;;;;;;20.00;14.60;;;;;;;2.99;91.34;99645.87;107279;1260;73894;-39
2024/02/21 04:47:52;;;;;;;17.30;13.90;;;;;;;3.00;91.19;99646.05;107163;1257;67881;-39
2024/02/21 04:50:19;;;;;;;18.70;13.30;;;;;;;3.00;91.30;99645.61;107162;1262;72655;-39
2024/02/21 04:52:47;;;;;;;19.10;13.00;;;;;;;3.01;91.34;99652.98;107189;1257;60933;-39
2024/02/21 04:55:15;;;;;;;19.10;13.50;;;;;;;3.01;91.46;99650.09;107188;1257;60395;-39
2024/02/21 04:57:43;;;;;;;21.60;14.60;;;;;;;3.02;91.69;99651.11;107236;1257;73843;-39
2024/02/21 05:00:11;;;;;;;18.00;14.10;;;;;;;3.03;91.81;99653.65;107219;1257;67685;-39
2024/02/21 05:02:38;;;;;;;19.00;14.10;;;;;;;3.04;91.90;99656.45;107224;1257;72705;-39
2024/02/21 05:05:06;;;;;;;20.00;14.50;;;;;;;3.04;91.83;99656.30;107208;1257;60915;-39
2024/02/21 05:07:35;;;;;;;19.70;15.30;;;;;;;3.04;91.95;99659.27;107203;1256;60446;-39
2024/02/21 05:10:03;;;;;;;18.30;14.00;;;;;;;3.02;91.71;99661.01;107206;1257;73879;-39
2024/02/21 05:12:30;;;;;;;19.40;14.10;;;;;;;3.03;91.75;99660.89;107200;1259;66769;-39
2024/02/21 05:14:58;;;;;;;20.10;14.40;;;;;;;3.05;91.67;99667.42;107153;1257;72778;-39
2024/02/21 05:17:25;;;;;;;17.70;13.30;;;;;;;3.05;91.65;99664.40;107159;1259;60922;-39
2024/02/21 05:19:53;;;;;;;18.00;13.50;;;;;;;3.07;91.74;99665.23;107210;1257;60290;-39
2024/02/21 05:22:21;;;;;;;18.20;13.20;;;;;;;3.09;91.60;99660.19;107157;1257;73837;-39
2024/02/21 05:24:48;;;;;;;16.40;12.70;;;;;;;3.12;91.55;99662.51;107215;1261;67576;-39
2024/02/21 05:27:16;;;;;;;18.50;13.60;;;;;;;3.12;91.77;99659.23;107218;1261;70675;-39
2024/02/21 05:29:44;;;;;;;17.30;13.10;;;;;;;3.12;91.84;99659.98;107238;1257;60447;-39
2024/02/21 05:32:11;;;;;;;16.60;13.00;;;;;;;3.14;91.79;99660.86;107240;1257;60320;-39
2024/02/21 05:34:39;;;;;;;16.80;12.30;;;;;;;3.21;91.64;99666.80;107176;1256;74053;-39
2024/02/21 05:37:07;;;;;;;17.80;12.90;;;;;;;3.28;91.47;99671.14;107163;1257;67554;-39
2024/02/21 05:39:35;;;;;;;17.00;12.60;;;;;;;3.28;91.76;99671.66;107158;1258;72712;-38
2024/02/21 05:42:02;;;;;;;17.00;13.00;;;;;;;3.29;91.70;99675.13;107190;1258;60493;-38
2024/02/21 05:44:30;;;;;;;18.60;13.50;;;;;;;3.26;91.64;99671.61;107121;1257;60524;-38
2024/02/21 05:46:57;;;;;;;17.80;12.50;;;;;;;3.26;91.68;99674.88;107217;1257;72971;-38
2024/02/21 05:49:25;;;;;;;16.40;12.90;;;;;;;3.26;91.58;99676.64;107204;1257;67727;-38
2024/02/21 05:51:52;;;;;;;17.80;12.90;;;;;;;3.26;91.65;99676.33;107186;1258;72660;-38
2024/02/21 05:54:20;;;;;;;16.90;12.40;;;;;;;3.25;91.75;99677.11;107192;1257;60434;-38
2024/02/21 05:56:47;;;;;;;15.20;12.20;;;;;;;3.23;91.85;99674.52;107200;1257;60944;-39
2024/02/21 05:59:15;;;;;;;17.90;12.60;;;;;;;3.23;92.26;99679.73;107181;1257;72675;-39
2024/02/21 06:01:42;;;;;;;16.70;12.80;;;;;;;3.23;92.48;99682.35;107214;1257;66612;-39
2024/02/21 06:04:10;;;;;;;20.20;14.40;;;;;;;3.24;92.65;99682.76;107244;1257;72740;-39
2024/02/21 06:06:38;;;;;;;18.60;13.30;;;;;;;3.27;92.77;99684.14;107211;1257;61350;-39
2024/02/21 06:09:06;;;;;;;16.50;12.50;;;;;;;3.27;92.53;99688.04;107251;1257;60216;-39
2024/02/21 06:11:34;;;;;;;15.50;12.90;;;;;;;3.27;92.61;99688.14;107221;1257;73863;-39
2024/02/21 06:14:02;;;;;;;18.30;13.20;;;;;;;3.29;92.71;99686.38;107231;1260;66578;-39
2024/02/21 06:16:30;;;;;;;16.80;12.50;;;;;;;3.30;92.43;99683.35;107190;1259;71952;-39
2024/02/21 06:18:58;;;;;;;16.50;12.50;;;;;;;3.30;92.57;99683.45;107188;1261;61084;-38
2024/02/21 06:21:29;;;;;;;22.00;15.80;;;;;;;3.29;92.51;99686.16;107186;1257;60446;-39
2024/02/21 06:23:57;;;;;;;23.80;16.90;;;;;;;3.32;92.84;99685.08;107217;1257;72577;-39
2024/02/21 06:26:24;;;;;;;24.90;18.10;;;;;;;3.36;93.02;99689.44;107183;1257;66338;-39
2024/02/21 06:28:52;;;;;;;23.40;16.00;;;;;;;3.41;93.10;99688.02;107189;1257;72631;-39
2024/02/21 06:31:19;;;;;;;24.50;17.00;;;;;;;3.46;93.33;99687.12;107180;1257;60514;-39
2024/02/21 06:33:47;;;;;;;22.80;16.00;;;;;;;3.52;93.50;99688.80;107203;1259;60304;-38
2024/02/21 06:36:15;;;;;;;21.10;15.70;;;;;;;3.59;93.62;99690.08;107244;1257;74177;-39
2024/02/21 06:38:42;;;;;;;21.90;16.20;;;;;;;3.65;93.73;99693.17;107252;1257;67556;-39
2024/02/21 06:41:20;;;;;;;19.60;14.60;;;;;;;3.72;93.65;99693.73;107204;1261;72681;-39
2024/02/21 06:43:47;;;;;;;17.40;13.90;;;;;;;3.77;93.89;99694.46;107221;1257;59276;-39
2024/02/21 06:46:28;;;;;;;17.10;13.40;;;;;;;3.81;93.85;99697.59;107168;1257;60395;-39
2024/02/21 06:48:56;;;;;;;18.10;12.70;;;;;;;3.84;93.88;99699.64;107226;1257;73939;-38
2024/02/21 06:51:25;;;;;;;15.80;12.10;;;;;;;3.86;93.94;99702.39;106310;1259;1002958;-38
2024/02/21 06:53:53;;;;;;;16.50;12.40;;;;;;;3.89;93.93;99699.68;107011;1259;72709;-38
2024/02/21 06:56:26;;;;;;;14.70;11.40;;;;;;;3.93;93.67;99704.45;107087;1259;60937;-38
2024/02/21 06:58:57;;;;;;;18.00;12.20;;;;;;;3.91;93.29;99705.25;107072;1259;60547;-38
2024/02/21 07:01:25;;;;;;;15.90;12.10;;;;;;;3.90;93.44;99709.95;107018;1259;74219;-38
2024/02/21 07:03:53;;;;;;;16.30;12.40;;;;;;;3.91;93.71;99716.11;107079;1259;66760;-39
2024/02/21 07:06:20;;;;;;;17.60;12.60;;;;;;;3.92;94.00;99713.11;107067;1258;71519;-39
2024/02/21 07:08:48;;;;;;;13.40;11.40;;;;;;;3.97;94.41;99714.02;107027;1259;60409;-39
2024/02/21 07:11:16;;;;;;;14.70;11.30;;;;;;;4.02;94.53;99715.79;107030;1264;60556;-39
2024/02/21 07:13:43;;;;;;;14.50;11.00;;;;;;;4.05;94.54;99713.02;107095;1259;72162;-39
2024/02/21 07:16:11;;;;;;;14.00;11.20;;;;;;;4.09;94.51;99717.96;107054;1259;67103;-39
2024/02/21 07:18:39;;;;;;;14.30;11.70;;;;;;;4.13;94.64;99721.40;107055;1259;71216;-39
2024/02/21 07:21:06;;;;;;;18.10;12.20;;;;;;;4.15;94.54;99723.76;107076;1259;60872;-39
2024/02/21 07:23:34;;;;;;;17.40;12.50;;;;;;;4.18;94.41;99728.12;107042;1259;61981;-39
2024/02/21 07:26:02;;;;;;;17.40;13.40;;;;;;;4.19;94.07;99726.48;107051;1259;73874;-39
2024/02/21 07:28:29;;;;;;;19.10;14.30;;;;;;;4.22;93.89;99729.42;107085;1259;66518;-39
2024/02/21 07:30:59;;;;;;;16.60;12.50;;;;;;;4.24;93.73;99724.87;106992;1259;73031;-39
2024/02/21 07:33:26;;;;;;;14.10;11.60;;;;;;;4.29;93.32;99723.75;107052;1259;61003;-39
2024/02/21 07:35:54;;;;;;;14.70;11.50;;;;;;;4.36;93.27;99719.06;107042;1259;59228;-39
2024/02/21 07:38:22;;;;;;;13.80;11.80;;;;;;;4.43;93.27;99724.33;106955;1259;72725;-39
2024/02/21 07:40:50;;;;;;;14.00;10.80;;;;;;;4.49;93.00;99723.49;106999;1258;69046;-38
2024/02/21 07:43:17;;;;;;;12.70;10.20;;;;;;;4.57;92.56;99727.58;106864;1259;71418;-38
2024/02/21 07:45:45;;;;;;;13.60;10.40;;;;;;;4.63;92.18;99725.73;107003;1259;60979;-38
2024/02/21 07:48:13;;;;;;;14.70;11.40;;;;;;;4.65;92.15;99727.55;107017;1259;60477;-38
2024/02/21 07:50:40;;;;;;;15.60;11.90;;;;;;;4.68;92.16;99727.64;107082;1258;72570;-38
2024/02/21 07:53:08;;;;;;;12.20;10.00;;;;;;;4.76;91.98;99726.71;107131;1258;67903;-38
2024/02/21 07:55:35;;;;;;;11.50;9.90;;;;;;;4.87;91.43;99725.48;107115;1260;71519;-38
2024/02/21 07:58:03;;;;;;;13.00;10.60;;;;;;;4.93;90.91;99725.76;107164;1256;62160;-38
2024/02/21 08:00:31;;;;;;;12.30;10.40;;;;;;;4.93;90.64;99727.84;107017;1259;59684;-38
2024/02/21 08:02:58;;;;;;;13.30;10.90;;;;;;;4.92;90.41;99729.50;106980;1258;73991;-38
2024/02/21 08:05:26;;;;;;;14.60;10.60;;;;;;;4.95;90.37;99731.83;107123;1259;69747;-38
2024/02/21 08:07:54;;;;;;;12.50;9.20;;;;;;;5.00;89.78;99731.89;107038;1261;73053;-38
2024/02/21 08:10:24;;;;;;;14.30;11.10;;;;;;;4.96;89.58;99730.94;107011;1259;60438;-38
2024/02/21 08:12:52;;;;;;;14.70;10.80;;;;;;;4.90;89.80;99735.43;107042;1259;60783;-38
2024/02/21 08:15:24;;;;;;;13.60;10.60;;;;;;;4.89;90.18;99734.75;107024;1263;74245;-39
2024/02/21 08:17:51;;;;;;;12.00;9.70;;;;;;;4.95;90.35;99734.56;107136;1257;65607;-38
2024/02/21 08:20:19;;;;;;;11.90;9.30;;;;;;;5.02;90.16;99736.01;107208;1260;71539;-38
2024/02/21 08:22:47;;;;;;;11.90;9.70;;;;;;;5.08;90.09;99732.58;107141;1259;60444;-39
2024/02/21 08:25:14;;;;;;;13.10;10.40;;;;;;;5.11;90.34;99735.34;107181;1256;62246;-39
2024/02/21 08:27:42;;;;;;;14.00;10.60;;;;;;;5.12;90.37;99733.31;106994;1259;73905;-39
2024/02/21 08:30:11;;;;;;;13.80;10.70;;;;;;;5.14;90.07;99731.70;107058;1258;68053;-39
2024/02/21 08:32:38;;;;;;;12.10;9.20;;;;;;;5.16;89.46;99728.08;107206;1258;72805;-39
2024/02/21 08:35:07;;;;;;;12.50;9.70;;;;;;;5.16;89.02;99731.98;107191;1257;61035;-39
2024/02/21 08:37:34;;;;;;;12.20;9.80;;;;;;;5.11;89.16;99730.20;107224;1257;60412;-39
2024/02/21 08:40:08;;;;;;;10.60;9.20;;;;;;;5.05;89.33;99732.85;107151;1260;72711;-39
2024/02/21 08:42:36;;;;;;;11.20;9.30;;;;;;;5.03;89.44;99732.36;107147;1257;67300;-39
2024/02/21 08:45:05;;;;;;;10.90;8.70;;;;;;;5.05;89.38;99734.05;107199;1258;72761;-39
2024/02/21 08:47:32;;;;;;;10.80;9.50;;;;;;;5.07;89.19;99731.23;107165;1257;62075;-39
2024/02/21 08:50:00;;;;;;;12.10;9.40;;;;;;;5.05;89.40;99730.23;107211;1257;60303;-39
2024/02/21 08:52:42;;;;;;;12.00;10.00;;;;;;;5.04;89.68;99732.68;107185;1257;72682;-39
2024/02/21 08:55:10;;;;;;;12.90;10.40;;;;;;;5.03;90.21;99732.08;107212;1257;67006;-39
2024/02/21 08:57:37;;;;;;;13.70;9.80;;;;;;;5.09;89.96;99735.92;107084;1258;72827;-39
2024/02/21 09:00:09;;;;;;;12.10;8.90;;;;;;;5.14;89.93;99734.27;107156;1262;59806;-39
2024/02/21 09:02:45;;;;;;;13.20;9.10;;;;;;;5.15;89.99;99734.23;107160;1256;60556;-39
2024/02/21 09:05:13;;;;;;;12.70;10.10;;;;;;;5.13;90.32;99734.73;107128;1259;72711;-40
2024/02/21 09:07:41;;;;;;;13.10;9.70;;;;;;;5.12;90.52;99734.77;107064;1262;66637;-39
2024/02/21 09:10:09;;;;;;;14.50;9.50;;;;;;;5.16;90.34;99735.97;107096;1257;72801;-39
2024/02/21 09:12:37;;;;;;;9.50;8.30;;;;;;;5.23;90.15;99735.52;106336;1257;1003487;-39
2024/02/21 09:15:05;;;;;;;12.60;9.20;;;;;;;5.31;90.50;99733.77;107113;1257;61362;-39
2024/02/21 09:17:33;;;;;;;11.70;9.20;;;;;;;5.28;90.49;99725.45;107234;1258;73873;-39
2024/02/21 09:20:03;;;;;;;11.20;9.10;;;;;;;5.37;90.50;99732.83;107228;1257;66429;-39
2024/02/21 09:22:34;;;;;;;10.70;8.90;;;;;;;5.47;90.66;99736.05;107154;1257;73930;-39
2024/02/21 09:25:03;;;;;;;12.50;9.90;;;;;;;5.60;90.04;99733.74;107033;1258;60441;-39
2024/02/21 09:27:32;;;;;;;10.40;8.60;;;;;;;5.67;89.90;99735.97;107224;1257;60318;-39
2024/02/21 09:30:00;;;;;;;12.40;9.30;;;;;;;5.71;89.82;99738.59;107182;1257;76055;-39
2024/02/21 09:32:28;;;;;;;10.30;8.30;;;;;;;5.77;89.42;99738.94;107121;1257;70177;-39
2024/02/21 09:34:56;;;;;;;10.80;9.20;;;;;;;5.86;88.59;99738.72;107105;1257;74902;-39
2024/02/21 09:37:28;;;;;;;10.20;8.30;;;;;;;5.90;88.34;99740.92;107213;1257;60329;-39
2024/02/21 09:39:55;;;;;;;12.70;9.30;;;;;;;5.90;87.94;99740.83;107204;1258;60472;-39
2024/02/21 09:42:39;;;;;;;11.30;9.00;;;;;;;5.89;88.16;99739.48;107086;1262;76154;-39
2024/02/21 09:45:23;;;;;;;9.20;7.60;;;;;;;5.98;88.21;99736.71;107160;1257;67955;-39
2024/02/21 09:48:00;;;;;;;8.10;6.70;;;;;;;6.11;88.11;99730.75;107083;1259;72879;-39
2024/02/21 09:50:28;;;;;;;7.60;6.30;;;;;;;6.17;86.93;99732.65;107090;1262;60431;-39
2024/02/21 09:52:55;;;;;;;7.80;6.20;;;;;;;6.17;86.31;99731.08;107112;1258;60501;-39
2024/02/21 09:55:23;;;;;;;8.30;6.20;;;;;;;6.18;85.45;99733.52;107002;1259;151555;-39
2024/02/21 09:59:11;;;;;;;8.20;6.50;;;;;;;6.24;84.23;99726.91;104191;1293;614737;-39
2024/02/21 10:01:37;;;;;;;9.00;7.20;;;;;;;6.21;83.87;99725.61;106639;1269;58958;-39
2024/02/21 10:04:05;;;;;;;8.20;6.90;;;;;;;6.18;84.37;99724.17;106769;1263;60439;-39
2024/02/21 10:06:32;;;;;;;9.20;6.80;;;;;;;6.21;83.90;99718.84;106733;1263;72601;-40
2024/02/21 10:08:59;;;;;;;7.90;7.10;;;;;;;6.23;83.32;99720.04;106788;1266;68227;-39
2024/02/21 10:11:26;;;;;;;8.70;7.40;;;;;;;6.20;83.53;99718.02;106564;1264;153227;-40
2024/02/21 10:14:06;;;;;;;11.20;8.80;;;;;;;6.17;83.99;99723.50;106788;1263;60312;-39
2024/02/21 10:16:34;;;;;;;9.80;7.50;;;;;;;6.16;84.29;99721.89;106880;1264;59396;-40
2024/02/21 10:19:01;;;;;;;10.60;7.90;;;;;;;6.26;84.62;99720.15;106872;1264;72356;-39
2024/02/21 10:21:29;;;;;;;11.40;8.00;;;;;;;6.40;84.32;99720.80;106953;1261;67932;-39
2024/02/21 10:23:56;;;;;;;9.50;8.30;;;;;;;6.48;84.12;99719.88;106913;1263;72635;-39
2024/02/21 10:26:23;;;;;;;12.00;9.10;;;;;;;6.51;84.28;99714.48;106855;1263;60377;-39
2024/02/21 10:28:51;;;;;;;9.90;7.40;;;;;;;6.57;83.98;99710.08;106854;1263;60366;-39
2024/02/21 10:31:24;;;;;;;9.10;7.40;;;;;;;6.60;82.69;99702.90;106838;1264;73128;-39
2024/02/21 10:33:55;;;;;;;10.10;7.40;;;;;;;6.72;81.71;99711.54;106893;1262;66668;-39
2024/02/21 10:36:22;;;;;;;10.60;7.60;;;;;;;6.74;81.46;99715.29;106877;1263;72754;-39
2024/02/21 10:38:49;;;;;;;9.30;7.60;;;;;;;6.72;80.63;99710.40;106861;1262;60173;-39
2024/02/21 10:41:16;;;;;;;11.30;7.70;;;;;;;6.72;80.94;99711.30;106785;1262;60515;-39
2024/02/21 10:43:43;;;;;;;8.60;6.20;;;;;;;6.78;80.26;99707.06;106996;1260;72108;-39
2024/02/21 10:46:11;;;;;;;7.80;6.00;;;;;;;6.83;79.45;99707.29;107092;1259;66642;-39
2024/02/21 10:48:45;;;;;;;7.70;6.00;;;;;;;6.85;78.96;99706.58;107117;1260;72563;-39
2024/02/21 10:51:27;;;;;;;7.00;5.60;;;;;;;6.87;78.45;99706.89;107062;1259;60251;-39
2024/02/21 10:53:56;;;;;;;6.80;5.30;;;;;;;6.91;78.03;99708.42;107070;1260;60082;-39
2024/02/21 10:56:27;;;;;;;6.30;4.90;;;;;;;6.99;77.94;99702.52;107037;1263;73016;-39
2024/02/21 10:58:55;;;;;;;6.20;5.10;;;;;;;7.10;78.02;99705.59;107408;1254;67856;-39
2024/02/21 11:01:22;;;;;;;5.80;5.00;;;;;;;7.15;76.46;99701.42;107428;1254;72424;-39
2024/02/21 11:03:52;;;;;;;6.20;5.30;;;;;;;7.13;76.08;99698.35;107474;1254;60520;-39
2024/02/21 11:06:19;;;;;;;6.10;5.20;;;;;;;7.07;76.01;99693.80;107414;1254;60157;-39
2024/02/21 11:08:46;;;;;;;6.40;4.60;;;;;;;6.98;75.55;99693.17;107295;1256;73033;-40
2024/02/21 11:11:18;;;;;;;6.40;4.50;;;;;;;6.97;75.38;99689.48;107465;1256;66970;-40
2024/02/21 11:14:08;;;;;;;7.20;5.20;;;;;;;6.95;75.08;99693.50;107427;1257;72705;-39
2024/02/21 11:16:39;;;;;;;6.20;4.30;;;;;;;6.85;75.33;99694.13;106688;1257;1003789;-40
2024/02/21 11:19:18;;;;;;;5.70;4.90;;;;;;;6.76;75.60;99691.52;107508;1254;60310;-39
2024/02/21 11:21:45;;;;;;;5.30;4.20;;;;;;;6.71;76.00;99689.86;107451;1257;71740;-39
2024/02/21 11:24:12;;;;;;;5.50;4.50;;;;;;;6.74;75.87;99690.67;107446;1256;67947;-39
2024/02/21 11:26:41;;;;;;;5.10;3.90;;;;;;;6.77;75.36;99687.80;107428;1257;72760;-40